sensor_id;sensor_type;location;lat;lon;timestamp;temperature;humidity
54158;DHT22;40065;49.894;10.358;2023-09-30T00:03:18;16.80;99.90
54158;DHT22;40065;49.894;10.358;2023-09-30T00:08:20;16.60;99.90
54158;DHT22;40065;49.894;10.358;2023-09-30T00:13:22;16.50;99.90
54158;DHT22;40065;49.894;10.358;2023-09-30T00:18:24;16.40;99.90
54158;DHT22;40065;49.894;10.358;2023-09-30T00:23:26;16.30;99.90
54158;DHT22;40065;49.894;10.358;2023-09-30T00:28:28;16.20;99.90
54158;DHT22;40065;49.894;10.358;2023-09-30T00:33:31;16.20;99.90
54158;DHT22;40065;49.894;10.358;2023-09-30T00:38:33;16.10;99.90
54158;DHT22;40065;49.894;10.358;2023-09-30T00:43:35;16.20;99.90
54158;DHT22;40065;49.894;10.358;2023-09-30T00:48:37;16.20;99.90
54158;DHT22;40065;49.894;10.358;2023-09-30T00:53:40;16.30;99.90
54158;DHT22;40065;49.894;10.358;2023-09-30T00:58:42;16.50;99.90
54158;DHT22;40065;49.894;10.358;2023-09-30T01:03:45;16.60;99.90
54158;DHT22;40065;49.894;10.358;2023-09-30T01:08:47;16.60;99.90
54158;DHT22;40065;49.894;10.358;2023-09-30T01:13:49;16.50;99.90
54158;DHT22;40065;49.894;10.358;2023-09-30T01:18:51;16.40;99.90
54158;DHT22;40065;49.894;10.358;2023-09-30T01:23:54;16.30;99.90
54158;DHT22;40065;49.894;10.358;2023-09-30T01:28:57;16.20;99.90
54158;DHT22;40065;49.894;10.358;2023-09-30T01:33:59;16.10;99.90
54158;DHT22;40065;49.894;10.358;2023-09-30T01:39:01;16.10;99.90
54158;DHT22;40065;49.894;10.358;2023-09-30T01:44:05;16.10;99.90
54158;DHT22;40065;49.894;10.358;2023-09-30T01:49:07;16.10;99.90
54158;DHT22;40065;49.894;10.358;2023-09-30T01:54:09;16.10;99.90
54158;DHT22;40065;49.894;10.358;2023-09-30T01:59:11;16.20;99.90
54158;DHT22;40065;49.894;10.358;2023-09-30T02:04:13;16.40;99.90
54158;DHT22;40065;49.894;10.358;2023-09-30T02:09:17;16.30;99.90
54158;DHT22;40065;49.894;10.358;2023-09-30T02:14:20;16.40;99.90
54158;DHT22;40065;49.894;10.358;2023-09-30T02:19:22;16.40;99.90
54158;DHT22;40065;49.894;10.358;2023-09-30T02:24:24;16.50;99.90
54158;DHT22;40065;49.894;10.358;2023-09-30T02:29:26;16.40;99.90
54158;DHT22;40065;49.894;10.358;2023-09-30T02:34:30;16.40;99.90
54158;DHT22;40065;49.894;10.358;2023-09-30T02:39:32;16.10;99.90
54158;DHT22;40065;49.894;10.358;2023-09-30T02:44:34;16.00;99.90
54158;DHT22;40065;49.894;10.358;2023-09-30T02:49:36;16.00;99.90
54158;DHT22;40065;49.894;10.358;2023-09-30T02:54:39;16.00;99.90
54158;DHT22;40065;49.894;10.358;2023-09-30T02:59:41;16.00;99.90
54158;DHT22;40065;49.894;10.358;2023-09-30T03:04:43;16.00;99.90
54158;DHT22;40065;49.894;10.358;2023-09-30T03:09:45;16.00;99.90
54158;DHT22;40065;49.894;10.358;2023-09-30T03:14:46;15.90;99.90
54158;DHT22;40065;49.894;10.358;2023-09-30T03:19:48;15.80;99.90
54158;DHT22;40065;49.894;10.358;2023-09-30T03:24:52;15.70;99.90
54158;DHT22;40065;49.894;10.358;2023-09-30T03:29:55;15.80;99.90
54158;DHT22;40065;49.894;10.358;2023-09-30T03:34:57;15.70;99.90
54158;DHT22;40065;49.894;10.358;2023-09-30T03:40:02;15.60;99.90
54158;DHT22;40065;49.894;10.358;2023-09-30T03:45:13;15.60;99.90
54158;DHT22;40065;49.894;10.358;2023-09-30T03:50:15;15.60;99.90
54158;DHT22;40065;49.894;10.358;2023-09-30T03:55:18;15.50;99.90
54158;DHT22;40065;49.894;10.358;2023-09-30T04:00:22;15.50;99.90
54158;DHT22;40065;49.894;10.358;2023-09-30T04:05:26;15.40;99.90
54158;DHT22;40065;49.894;10.358;2023-09-30T04:10:31;15.40;99.90
54158;DHT22;40065;49.894;10.358;2023-09-30T04:15:33;15.30;99.90
54158;DHT22;40065;49.894;10.358;2023-09-30T04:20:38;15.20;99.90
54158;DHT22;40065;49.894;10.358;2023-09-30T04:25:41;15.10;99.90
54158;DHT22;40065;49.894;10.358;2023-09-30T04:30:45;15.10;99.90
54158;DHT22;40065;49.894;10.358;2023-09-30T04:35:47;15.10;99.90
54158;DHT22;40065;49.894;10.358;2023-09-30T04:40:48;15.00;99.90
54158;DHT22;40065;49.894;10.358;2023-09-30T04:45:52;14.80;99.90
54158;DHT22;40065;49.894;10.358;2023-09-30T04:50:57;14.80;99.90
54158;DHT22;40065;49.894;10.358;2023-09-30T04:55:59;14.60;99.90
54158;DHT22;40065;49.894;10.358;2023-09-30T05:01:01;14.50;99.90
54158;DHT22;40065;49.894;10.358;2023-09-30T05:06:03;14.40;99.90
54158;DHT22;40065;49.894;10.358;2023-09-30T05:11:05;14.30;99.90
54158;DHT22;40065;49.894;10.358;2023-09-30T05:16:07;14.30;99.90
54158;DHT22;40065;49.894;10.358;2023-09-30T05:21:09;14.30;99.90
54158;DHT22;40065;49.894;10.358;2023-09-30T05:26:11;14.10;99.90
54158;DHT22;40065;49.894;10.358;2023-09-30T05:31:13;14.00;99.90
54158;DHT22;40065;49.894;10.358;2023-09-30T05:36:15;14.00;99.90
54158;DHT22;40065;49.894;10.358;2023-09-30T05:41:17;14.00;99.90
54158;DHT22;40065;49.894;10.358;2023-09-30T05:46:22;14.00;99.90
54158;DHT22;40065;49.894;10.358;2023-09-30T05:51:24;14.10;99.90
54158;DHT22;40065;49.894;10.358;2023-09-30T05:56:26;13.90;99.90
54158;DHT22;40065;49.894;10.358;2023-09-30T06:01:28;14.10;99.90
54158;DHT22;40065;49.894;10.358;2023-09-30T06:06:30;14.30;99.90
54158;DHT22;40065;49.894;10.358;2023-09-30T06:11:32;14.60;99.90
54158;DHT22;40065;49.894;10.358;2023-09-30T06:16:34;14.90;99.90
54158;DHT22;40065;49.894;10.358;2023-09-30T06:21:36;15.30;99.90
54158;DHT22;40065;49.894;10.358;2023-09-30T06:26:38;15.20;99.90
54158;DHT22;40065;49.894;10.358;2023-09-30T06:31:40;15.70;99.90
54158;DHT22;40065;49.894;10.358;2023-09-30T06:36:42;17.20;99.90
54158;DHT22;40065;49.894;10.358;2023-09-30T06:41:45;18.50;99.90
54158;DHT22;40065;49.894;10.358;2023-09-30T06:46:48;21.00;99.90
54158;DHT22;40065;49.894;10.358;2023-09-30T06:51:52;20.10;99.50
54158;DHT22;40065;49.894;10.358;2023-09-30T06:56:54;21.50;98.50
54158;DHT22;40065;49.894;10.358;2023-09-30T07:01:56;22.60;96.20
54158;DHT22;40065;49.894;10.358;2023-09-30T07:06:58;21.70;96.70
54158;DHT22;40065;49.894;10.358;2023-09-30T07:12:00;22.10;95.60
54158;DHT22;40065;49.894;10.358;2023-09-30T07:17:01;21.80;96.00
54158;DHT22;40065;49.894;10.358;2023-09-30T07:22:06;21.70;95.50
54158;DHT22;40065;49.894;10.358;2023-09-30T07:27:08;23.30;94.60
54158;DHT22;40065;49.894;10.358;2023-09-30T07:32:28;24.20;92.10
54158;DHT22;40065;49.894;10.358;2023-09-30T07:37:30;26.80;88.10
54158;DHT22;40065;49.894;10.358;2023-09-30T07:42:32;27.20;85.00
54158;DHT22;40065;49.894;10.358;2023-09-30T07:47:35;26.70;81.70
54158;DHT22;40065;49.894;10.358;2023-09-30T07:52:37;24.80;83.80
54158;DHT22;40065;49.894;10.358;2023-09-30T07:57:43;23.20;87.20
54158;DHT22;40065;49.894;10.358;2023-09-30T08:02:45;23.80;88.80
54158;DHT22;40065;49.894;10.358;2023-09-30T08:07:47;22.60;89.50
54158;DHT22;40065;49.894;10.358;2023-09-30T08:12:49;22.00;90.60
54158;DHT22;40065;49.894;10.358;2023-09-30T08:17:51;21.10;92.40
54158;DHT22;40065;49.894;10.358;2023-09-30T08:22:53;20.10;93.30
54158;DHT22;40065;49.894;10.358;2023-09-30T08:27:55;22.30;90.50
54158;DHT22;40065;49.894;10.358;2023-09-30T08:32:57;23.10;86.60
54158;DHT22;40065;49.894;10.358;2023-09-30T08:37:59;26.00;81.40
54158;DHT22;40065;49.894;10.358;2023-09-30T08:43:03;24.40;80.30
54158;DHT22;40065;49.894;10.358;2023-09-30T08:48:06;25.70;81.00
54158;DHT22;40065;49.894;10.358;2023-09-30T08:53:10;25.80;76.50
54158;DHT22;40065;49.894;10.358;2023-09-30T08:58:13;26.40;73.90
54158;DHT22;40065;49.894;10.358;2023-09-30T09:03:15;26.10;75.40
54158;DHT22;40065;49.894;10.358;2023-09-30T09:08:17;25.00;77.20
54158;DHT22;40065;49.894;10.358;2023-09-30T09:13:26;25.50;78.90
54158;DHT22;40065;49.894;10.358;2023-09-30T09:18:32;28.40;72.40
54158;DHT22;40065;49.894;10.358;2023-09-30T09:23:39;29.40;71.00
54158;DHT22;40065;49.894;10.358;2023-09-30T09:28:41;27.80;68.60
54158;DHT22;40065;49.894;10.358;2023-09-30T09:33:44;27.40;70.70
54158;DHT22;40065;49.894;10.358;2023-09-30T09:38:50;29.60;69.30
54158;DHT22;40065;49.894;10.358;2023-09-30T09:43:59;30.20;67.30
54158;DHT22;40065;49.894;10.358;2023-09-30T09:49:01;29.40;67.80
54158;DHT22;40065;49.894;10.358;2023-09-30T09:54:04;28.60;68.00
54158;DHT22;40065;49.894;10.358;2023-09-30T09:59:09;27.90;65.90
54158;DHT22;40065;49.894;10.358;2023-09-30T10:04:13;26.50;71.30
54158;DHT22;40065;49.894;10.358;2023-09-30T10:09:18;27.80;69.60
54158;DHT22;40065;49.894;10.358;2023-09-30T10:14:31;26.20;70.50
54158;DHT22;40065;49.894;10.358;2023-09-30T10:19:34;24.40;76.00
54158;DHT22;40065;49.894;10.358;2023-09-30T10:24:36;24.20;78.70
54158;DHT22;40065;49.894;10.358;2023-09-30T10:29:41;23.40;80.50
54158;DHT22;40065;49.894;10.358;2023-09-30T10:34:49;23.10;80.60
54158;DHT22;40065;49.894;10.358;2023-09-30T10:39:57;23.60;82.20
54158;DHT22;40065;49.894;10.358;2023-09-30T10:45:00;22.90;82.00
54158;DHT22;40065;49.894;10.358;2023-09-30T10:50:03;23.10;82.10
54158;DHT22;40065;49.894;10.358;2023-09-30T10:55:06;23.20;84.20
54158;DHT22;40065;49.894;10.358;2023-09-30T11:00:12;25.70;78.80
54158;DHT22;40065;49.894;10.358;2023-09-30T11:05:17;26.20;78.00
54158;DHT22;40065;49.894;10.358;2023-09-30T11:10:19;24.00;77.20
54158;DHT22;40065;49.894;10.358;2023-09-30T11:15:21;24.80;79.60
54158;DHT22;40065;49.894;10.358;2023-09-30T11:20:23;24.60;80.70
54158;DHT22;40065;49.894;10.358;2023-09-30T11:25:26;25.70;77.00
54158;DHT22;40065;49.894;10.358;2023-09-30T11:30:27;25.30;78.60
54158;DHT22;40065;49.894;10.358;2023-09-30T11:35:29;26.30;76.90
54158;DHT22;40065;49.894;10.358;2023-09-30T11:40:31;25.00;79.70
54158;DHT22;40065;49.894;10.358;2023-09-30T11:45:35;26.40;77.30
54158;DHT22;40065;49.894;10.358;2023-09-30T11:50:47;26.80;75.50
54158;DHT22;40065;49.894;10.358;2023-09-30T11:55:49;25.70;77.00
54158;DHT22;40065;49.894;10.358;2023-09-30T12:00:53;26.20;76.90
54158;DHT22;40065;49.894;10.358;2023-09-30T12:05:55;25.40;75.80
54158;DHT22;40065;49.894;10.358;2023-09-30T12:10:57;25.80;76.40
54158;DHT22;40065;49.894;10.358;2023-09-30T12:16:01;25.30;77.60
54158;DHT22;40065;49.894;10.358;2023-09-30T12:21:09;24.70;76.90
54158;DHT22;40065;49.894;10.358;2023-09-30T12:26:12;24.60;79.20
54158;DHT22;40065;49.894;10.358;2023-09-30T12:31:17;25.00;77.50
54158;DHT22;40065;49.894;10.358;2023-09-30T12:36:21;25.80;77.30
54158;DHT22;40065;49.894;10.358;2023-09-30T12:41:23;25.70;76.00
54158;DHT22;40065;49.894;10.358;2023-09-30T12:46:25;25.90;77.60
54158;DHT22;40065;49.894;10.358;2023-09-30T12:51:27;25.40;78.40
54158;DHT22;40065;49.894;10.358;2023-09-30T12:56:29;23.30;80.60
54158;DHT22;40065;49.894;10.358;2023-09-30T13:01:31;25.10;79.10
54158;DHT22;40065;49.894;10.358;2023-09-30T13:06:36;25.50;75.80
54158;DHT22;40065;49.894;10.358;2023-09-30T13:11:38;24.70;79.20
54158;DHT22;40065;49.894;10.358;2023-09-30T13:16:40;24.50;77.30
54158;DHT22;40065;49.894;10.358;2023-09-30T13:21:43;24.40;76.40
54158;DHT22;40065;49.894;10.358;2023-09-30T13:26:46;23.20;80.30
54158;DHT22;40065;49.894;10.358;2023-09-30T13:31:48;22.70;82.80
54158;DHT22;40065;49.894;10.358;2023-09-30T13:36:50;22.40;83.80
54158;DHT22;40065;49.894;10.358;2023-09-30T13:41:52;21.80;83.80
54158;DHT22;40065;49.894;10.358;2023-09-30T13:46:53;21.90;84.10
54158;DHT22;40065;49.894;10.358;2023-09-30T13:51:55;21.90;84.30
54158;DHT22;40065;49.894;10.358;2023-09-30T13:56:57;21.60;83.40
54158;DHT22;40065;49.894;10.358;2023-09-30T14:01:59;21.70;84.20
54158;DHT22;40065;49.894;10.358;2023-09-30T14:07:02;21.50;85.30
54158;DHT22;40065;49.894;10.358;2023-09-30T14:12:04;21.40;84.80
54158;DHT22;40065;49.894;10.358;2023-09-30T14:17:06;21.30;85.40
54158;DHT22;40065;49.894;10.358;2023-09-30T14:22:16;21.20;86.40
54158;DHT22;40065;49.894;10.358;2023-09-30T14:27:19;21.20;86.30
54158;DHT22;40065;49.894;10.358;2023-09-30T14:32:22;21.30;86.00
54158;DHT22;40065;49.894;10.358;2023-09-30T14:37:25;21.20;86.30
54158;DHT22;40065;49.894;10.358;2023-09-30T14:42:26;21.00;86.20
54158;DHT22;40065;49.894;10.358;2023-09-30T14:47:29;21.10;86.80
54158;DHT22;40065;49.894;10.358;2023-09-30T14:52:31;21.40;86.70
54158;DHT22;40065;49.894;10.358;2023-09-30T14:57:33;21.60;85.70
54158;DHT22;40065;49.894;10.358;2023-09-30T15:02:35;22.10;84.70
54158;DHT22;40065;49.894;10.358;2023-09-30T15:07:40;21.60;85.20
54158;DHT22;40065;49.894;10.358;2023-09-30T15:12:42;21.10;86.50
54158;DHT22;40065;49.894;10.358;2023-09-30T15:17:44;20.90;88.10
54158;DHT22;40065;49.894;10.358;2023-09-30T15:22:46;20.50;89.30
54158;DHT22;40065;49.894;10.358;2023-09-30T15:27:48;20.30;89.70
54158;DHT22;40065;49.894;10.358;2023-09-30T15:32:49;19.90;90.50
54158;DHT22;40065;49.894;10.358;2023-09-30T15:37:51;19.70;90.80
54158;DHT22;40065;49.894;10.358;2023-09-30T15:42:53;19.70;91.40
54158;DHT22;40065;49.894;10.358;2023-09-30T15:47:55;19.70;91.30
54158;DHT22;40065;49.894;10.358;2023-09-30T15:52:57;19.60;91.40
54158;DHT22;40065;49.894;10.358;2023-09-30T15:57:59;19.50;91.40
54158;DHT22;40065;49.894;10.358;2023-09-30T16:03:01;19.20;92.00
54158;DHT22;40065;49.894;10.358;2023-09-30T16:08:04;19.10;92.10
54158;DHT22;40065;49.894;10.358;2023-09-30T16:13:07;19.00;92.70
54158;DHT22;40065;49.894;10.358;2023-09-30T16:18:10;18.70;93.30
54158;DHT22;40065;49.894;10.358;2023-09-30T16:23:12;18.50;93.50
54158;DHT22;40065;49.894;10.358;2023-09-30T16:28:14;18.30;94.90
54158;DHT22;40065;49.894;10.358;2023-09-30T16:33:16;18.10;94.90
54158;DHT22;40065;49.894;10.358;2023-09-30T16:38:21;17.80;95.60
54158;DHT22;40065;49.894;10.358;2023-09-30T16:43:23;17.60;95.90
54158;DHT22;40065;49.894;10.358;2023-09-30T16:48:25;17.40;96.60
54158;DHT22;40065;49.894;10.358;2023-09-30T16:53:27;17.20;99.00
54158;DHT22;40065;49.894;10.358;2023-09-30T16:58:29;17.00;99.90
54158;DHT22;40065;49.894;10.358;2023-09-30T17:03:31;16.80;99.90
54158;DHT22;40065;49.894;10.358;2023-09-30T17:08:33;16.60;99.90
54158;DHT22;40065;49.894;10.358;2023-09-30T17:13:35;16.40;99.90
54158;DHT22;40065;49.894;10.358;2023-09-30T17:18:37;16.30;99.90
54158;DHT22;40065;49.894;10.358;2023-09-30T17:23:40;16.20;99.90
54158;DHT22;40065;49.894;10.358;2023-09-30T17:28:42;15.90;99.90
54158;DHT22;40065;49.894;10.358;2023-09-30T17:33:46;15.70;99.90
54158;DHT22;40065;49.894;10.358;2023-09-30T17:38:48;15.60;99.90
54158;DHT22;40065;49.894;10.358;2023-09-30T17:43:50;15.60;99.90
54158;DHT22;40065;49.894;10.358;2023-09-30T17:48:52;15.40;99.90
54158;DHT22;40065;49.894;10.358;2023-09-30T17:53:53;15.10;99.90
54158;DHT22;40065;49.894;10.358;2023-09-30T17:58:56;14.90;99.90
54158;DHT22;40065;49.894;10.358;2023-09-30T18:03:58;14.70;99.90
54158;DHT22;40065;49.894;10.358;2023-09-30T18:09:00;14.80;99.90
54158;DHT22;40065;49.894;10.358;2023-09-30T18:14:02;14.60;99.90
54158;DHT22;40065;49.894;10.358;2023-09-30T18:19:04;14.60;99.90
54158;DHT22;40065;49.894;10.358;2023-09-30T18:24:06;14.50;99.90
54158;DHT22;40065;49.894;10.358;2023-09-30T18:29:08;14.50;99.90
54158;DHT22;40065;49.894;10.358;2023-09-30T18:34:10;14.40;99.90
54158;DHT22;40065;49.894;10.358;2023-09-30T18:39:12;14.30;99.90
54158;DHT22;40065;49.894;10.358;2023-09-30T18:44:27;14.20;99.90
54158;DHT22;40065;49.894;10.358;2023-09-30T18:49:29;14.20;99.90
54158;DHT22;40065;49.894;10.358;2023-09-30T18:54:31;14.10;99.90
54158;DHT22;40065;49.894;10.358;2023-09-30T18:59:32;14.00;99.90
54158;DHT22;40065;49.894;10.358;2023-09-30T19:04:34;14.00;99.90
54158;DHT22;40065;49.894;10.358;2023-09-30T19:09:36;13.90;99.90
54158;DHT22;40065;49.894;10.358;2023-09-30T19:14:38;13.80;99.90
54158;DHT22;40065;49.894;10.358;2023-09-30T19:19:43;13.60;99.90
54158;DHT22;40065;49.894;10.358;2023-09-30T19:24:46;13.70;99.90
54158;DHT22;40065;49.894;10.358;2023-09-30T19:29:49;13.70;99.90
54158;DHT22;40065;49.894;10.358;2023-09-30T19:34:51;13.60;99.90
54158;DHT22;40065;49.894;10.358;2023-09-30T19:39:53;13.50;99.90
54158;DHT22;40065;49.894;10.358;2023-09-30T19:44:55;13.40;99.90
54158;DHT22;40065;49.894;10.358;2023-09-30T19:49:57;13.40;99.90
54158;DHT22;40065;49.894;10.358;2023-09-30T19:54:59;13.50;99.90
54158;DHT22;40065;49.894;10.358;2023-09-30T20:00:01;13.30;99.90
54158;DHT22;40065;49.894;10.358;2023-09-30T20:05:05;13.20;99.90
54158;DHT22;40065;49.894;10.358;2023-09-30T20:10:07;13.10;99.90
54158;DHT22;40065;49.894;10.358;2023-09-30T20:15:10;13.10;99.90
54158;DHT22;40065;49.894;10.358;2023-09-30T20:20:12;13.10;99.90
54158;DHT22;40065;49.894;10.358;2023-09-30T20:25:18;13.00;99.90
54158;DHT22;40065;49.894;10.358;2023-09-30T20:30:20;12.70;99.90
54158;DHT22;40065;49.894;10.358;2023-09-30T20:35:22;12.50;99.90
54158;DHT22;40065;49.894;10.358;2023-09-30T20:40:25;12.60;99.90
54158;DHT22;40065;49.894;10.358;2023-09-30T20:45:32;12.80;99.90
54158;DHT22;40065;49.894;10.358;2023-09-30T20:50:34;12.50;99.90
54158;DHT22;40065;49.894;10.358;2023-09-30T20:55:36;12.60;99.90
54158;DHT22;40065;49.894;10.358;2023-09-30T21:00:38;12.70;99.90
54158;DHT22;40065;49.894;10.358;2023-09-30T21:05:41;12.70;99.90
54158;DHT22;40065;49.894;10.358;2023-09-30T21:10:44;12.60;99.90
54158;DHT22;40065;49.894;10.358;2023-09-30T21:15:46;12.60;99.90
54158;DHT22;40065;49.894;10.358;2023-09-30T21:20:48;12.60;99.90
54158;DHT22;40065;49.894;10.358;2023-09-30T21:25:50;12.70;99.90
54158;DHT22;40065;49.894;10.358;2023-09-30T21:30:52;12.70;99.90
54158;DHT22;40065;49.894;10.358;2023-09-30T21:35:56;12.60;99.90
54158;DHT22;40065;49.894;10.358;2023-09-30T21:40:58;12.50;99.90
54158;DHT22;40065;49.894;10.358;2023-09-30T21:46:00;12.30;99.90
54158;DHT22;40065;49.894;10.358;2023-09-30T21:51:02;12.30;99.90
54158;DHT22;40065;49.894;10.358;2023-09-30T21:56:04;12.30;99.90
54158;DHT22;40065;49.894;10.358;2023-09-30T22:01:06;12.30;99.90
54158;DHT22;40065;49.894;10.358;2023-09-30T22:06:08;12.40;99.90
54158;DHT22;40065;49.894;10.358;2023-09-30T22:11:10;12.30;99.90
54158;DHT22;40065;49.894;10.358;2023-09-30T22:16:14;12.20;99.90
54158;DHT22;40065;49.894;10.358;2023-09-30T22:21:16;12.10;99.90
54158;DHT22;40065;49.894;10.358;2023-09-30T22:26:18;12.10;99.90
54158;DHT22;40065;49.894;10.358;2023-09-30T22:31:20;12.00;99.90
54158;DHT22;40065;49.894;10.358;2023-09-30T22:36:22;11.90;99.90
54158;DHT22;40065;49.894;10.358;2023-09-30T22:41:41;11.80;99.90
54158;DHT22;40065;49.894;10.358;2023-09-30T22:46:42;11.70;99.90
54158;DHT22;40065;49.894;10.358;2023-09-30T22:51:45;11.70;99.90
54158;DHT22;40065;49.894;10.358;2023-09-30T22:56:47;11.60;99.90
54158;DHT22;40065;49.894;10.358;2023-09-30T23:01:49;11.60;99.90
54158;DHT22;40065;49.894;10.358;2023-09-30T23:06:51;11.60;99.90
54158;DHT22;40065;49.894;10.358;2023-09-30T23:11:53;11.40;99.90
54158;DHT22;40065;49.894;10.358;2023-09-30T23:16:55;11.20;99.90
54158;DHT22;40065;49.894;10.358;2023-09-30T23:21:57;11.00;99.90
54158;DHT22;40065;49.894;10.358;2023-09-30T23:26:59;10.50;99.90
54158;DHT22;40065;49.894;10.358;2023-09-30T23:32:06;10.60;99.90
54158;DHT22;40065;49.894;10.358;2023-09-30T23:37:08;10.50;99.90
54158;DHT22;40065;49.894;10.358;2023-09-30T23:42:11;10.60;99.90
54158;DHT22;40065;49.894;10.358;2023-09-30T23:47:13;10.60;99.90
54158;DHT22;40065;49.894;10.358;2023-09-30T23:52:15;10.60;99.90
54158;DHT22;40065;49.894;10.358;2023-09-30T23:57:16;10.70;99.90
